sensor_id;sensor_type;location;lat;lon;timestamp;P1;durP1;ratioP1;P2;durP2;ratioP2
12792;SDS011;6460;42.684;23.260;2023-02-11T00:00:38;14.83;;;9.20;;
12792;SDS011;6460;42.684;23.260;2023-02-11T00:03:06;14.77;;;9.10;;
12792;SDS011;6460;42.684;23.260;2023-02-11T00:05:33;18.53;;;9.37;;
12792;SDS011;6460;42.684;23.260;2023-02-11T00:08:00;17.13;;;10.13;;
12792;SDS011;6460;42.684;23.260;2023-02-11T00:10:27;14.20;;;8.57;;
12792;SDS011;6460;42.684;23.260;2023-02-11T00:12:54;18.17;;;9.90;;
12792;SDS011;6460;42.684;23.260;2023-02-11T00:15:21;16.30;;;8.97;;
12792;SDS011;6460;42.684;23.260;2023-02-11T00:17:49;17.97;;;10.27;;
12792;SDS011;6460;42.684;23.260;2023-02-11T00:20:17;14.77;;;9.37;;
12792;SDS011;6460;42.684;23.260;2023-02-11T00:22:44;15.23;;;8.87;;
12792;SDS011;6460;42.684;23.260;2023-02-11T00:25:11;14.50;;;8.87;;
12792;SDS011;6460;42.684;23.260;2023-02-11T00:27:38;16.33;;;9.47;;
12792;SDS011;6460;42.684;23.260;2023-02-11T00:30:05;14.53;;;8.77;;
12792;SDS011;6460;42.684;23.260;2023-02-11T00:32:33;13.20;;;8.57;;
12792;SDS011;6460;42.684;23.260;2023-02-11T00:35:02;16.97;;;9.20;;
12792;SDS011;6460;42.684;23.260;2023-02-11T00:37:29;16.37;;;8.77;;
12792;SDS011;6460;42.684;23.260;2023-02-11T00:40:00;16.67;;;9.23;;
12792;SDS011;6460;42.684;23.260;2023-02-11T00:42:27;15.47;;;9.00;;
12792;SDS011;6460;42.684;23.260;2023-02-11T00:44:54;14.63;;;8.50;;
12792;SDS011;6460;42.684;23.260;2023-02-11T00:47:21;15.80;;;8.90;;
12792;SDS011;6460;42.684;23.260;2023-02-11T00:49:47;15.80;;;9.47;;
12792;SDS011;6460;42.684;23.260;2023-02-11T00:52:16;14.70;;;8.73;;
12792;SDS011;6460;42.684;23.260;2023-02-11T00:54:43;15.37;;;9.77;;
12792;SDS011;6460;42.684;23.260;2023-02-11T00:57:10;15.80;;;8.90;;
12792;SDS011;6460;42.684;23.260;2023-02-11T00:59:37;14.90;;;8.73;;
12792;SDS011;6460;42.684;23.260;2023-02-11T01:02:04;16.43;;;9.80;;
12792;SDS011;6460;42.684;23.260;2023-02-11T01:04:31;20.33;;;9.13;;
12792;SDS011;6460;42.684;23.260;2023-02-11T01:06:57;13.90;;;8.90;;
12792;SDS011;6460;42.684;23.260;2023-02-11T01:09:26;15.97;;;9.30;;
12792;SDS011;6460;42.684;23.260;2023-02-11T01:11:53;14.40;;;8.70;;
12792;SDS011;6460;42.684;23.260;2023-02-11T01:14:19;16.90;;;9.43;;
12792;SDS011;6460;42.684;23.260;2023-02-11T01:16:46;14.10;;;9.10;;
12792;SDS011;6460;42.684;23.260;2023-02-11T01:19:13;15.73;;;9.67;;
12792;SDS011;6460;42.684;23.260;2023-02-11T01:21:40;14.47;;;9.33;;
12792;SDS011;6460;42.684;23.260;2023-02-11T01:24:07;20.27;;;9.80;;
12792;SDS011;6460;42.684;23.260;2023-02-11T01:26:36;15.37;;;9.63;;
12792;SDS011;6460;42.684;23.260;2023-02-11T01:29:02;14.33;;;9.13;;
12792;SDS011;6460;42.684;23.260;2023-02-11T01:31:29;15.07;;;9.27;;
12792;SDS011;6460;42.684;23.260;2023-02-11T01:33:57;15.17;;;9.47;;
12792;SDS011;6460;42.684;23.260;2023-02-11T01:36:24;14.90;;;8.90;;
12792;SDS011;6460;42.684;23.260;2023-02-11T01:38:50;15.10;;;9.63;;
12792;SDS011;6460;42.684;23.260;2023-02-11T01:41:17;14.60;;;8.90;;
12792;SDS011;6460;42.684;23.260;2023-02-11T01:43:47;16.67;;;8.67;;
12792;SDS011;6460;42.684;23.260;2023-02-11T01:46:20;14.87;;;9.77;;
12792;SDS011;6460;42.684;23.260;2023-02-11T01:48:54;16.43;;;9.80;;
12792;SDS011;6460;42.684;23.260;2023-02-11T01:51:23;16.20;;;9.27;;
12792;SDS011;6460;42.684;23.260;2023-02-11T01:53:53;16.27;;;8.73;;
12792;SDS011;6460;42.684;23.260;2023-02-11T01:56:40;19.03;;;9.40;;
12792;SDS011;6460;42.684;23.260;2023-02-11T01:59:32;15.97;;;9.20;;
12792;SDS011;6460;42.684;23.260;2023-02-11T02:02:05;14.33;;;8.40;;
12792;SDS011;6460;42.684;23.260;2023-02-11T02:04:37;15.77;;;8.87;;
12792;SDS011;6460;42.684;23.260;2023-02-11T02:07:09;16.43;;;9.73;;
12792;SDS011;6460;42.684;23.260;2023-02-11T02:09:41;15.27;;;9.37;;
12792;SDS011;6460;42.684;23.260;2023-02-11T02:12:11;14.50;;;8.47;;
12792;SDS011;6460;42.684;23.260;2023-02-11T02:14:40;17.57;;;9.40;;
12792;SDS011;6460;42.684;23.260;2023-02-11T02:17:09;14.27;;;8.53;;
12792;SDS011;6460;42.684;23.260;2023-02-11T02:20:00;14.60;;;8.23;;
12792;SDS011;6460;42.684;23.260;2023-02-11T02:25:44;15.73;;;9.03;;
12792;SDS011;6460;42.684;23.260;2023-02-11T02:28:33;17.70;;;9.60;;
12792;SDS011;6460;42.684;23.260;2023-02-11T02:31:21;16.13;;;9.30;;
12792;SDS011;6460;42.684;23.260;2023-02-11T02:34:04;17.40;;;9.17;;
12792;SDS011;6460;42.684;23.260;2023-02-11T02:36:33;16.20;;;9.53;;
12792;SDS011;6460;42.684;23.260;2023-02-11T02:39:08;14.30;;;8.90;;
12792;SDS011;6460;42.684;23.260;2023-02-11T02:41:40;15.80;;;9.07;;
12792;SDS011;6460;42.684;23.260;2023-02-11T02:44:08;15.37;;;9.40;;
12792;SDS011;6460;42.684;23.260;2023-02-11T02:46:35;16.27;;;9.40;;
12792;SDS011;6460;42.684;23.260;2023-02-11T02:49:05;16.07;;;10.10;;
12792;SDS011;6460;42.684;23.260;2023-02-11T02:54:37;15.63;;;9.63;;
12792;SDS011;6460;42.684;23.260;2023-02-11T02:57:22;17.97;;;11.00;;
12792;SDS011;6460;42.684;23.260;2023-02-11T03:00:02;14.70;;;8.17;;
12792;SDS011;6460;42.684;23.260;2023-02-11T03:02:39;17.33;;;10.00;;
12792;SDS011;6460;42.684;23.260;2023-02-11T03:05:16;14.43;;;9.30;;
12792;SDS011;6460;42.684;23.260;2023-02-11T03:07:50;15.93;;;9.47;;
12792;SDS011;6460;42.684;23.260;2023-02-11T03:10:24;14.63;;;9.07;;
12792;SDS011;6460;42.684;23.260;2023-02-11T03:12:54;13.07;;;6.67;;
12792;SDS011;6460;42.684;23.260;2023-02-11T03:15:23;15.30;;;9.27;;
12792;SDS011;6460;42.684;23.260;2023-02-11T03:17:53;17.67;;;9.00;;
12792;SDS011;6460;42.684;23.260;2023-02-11T03:20:25;14.00;;;8.83;;
12792;SDS011;6460;42.684;23.260;2023-02-11T03:22:57;17.90;;;10.07;;
12792;SDS011;6460;42.684;23.260;2023-02-11T03:25:29;16.00;;;9.63;;
12792;SDS011;6460;42.684;23.260;2023-02-11T03:28:05;17.80;;;9.60;;
12792;SDS011;6460;42.684;23.260;2023-02-11T03:30:39;14.00;;;9.20;;
12792;SDS011;6460;42.684;23.260;2023-02-11T03:33:11;15.90;;;9.37;;
12792;SDS011;6460;42.684;23.260;2023-02-11T03:35:46;19.47;;;10.33;;
12792;SDS011;6460;42.684;23.260;2023-02-11T03:38:19;15.53;;;9.33;;
12792;SDS011;6460;42.684;23.260;2023-02-11T03:40:50;16.33;;;9.97;;
12792;SDS011;6460;42.684;23.260;2023-02-11T03:43:20;18.30;;;10.43;;
12792;SDS011;6460;42.684;23.260;2023-02-11T03:45:50;18.60;;;9.83;;
12792;SDS011;6460;42.684;23.260;2023-02-11T03:48:21;14.63;;;10.00;;
12792;SDS011;6460;42.684;23.260;2023-02-11T03:50:53;18.40;;;9.90;;
12792;SDS011;6460;42.684;23.260;2023-02-11T03:53:21;18.93;;;10.17;;
12792;SDS011;6460;42.684;23.260;2023-02-11T03:55:49;17.87;;;10.10;;
12792;SDS011;6460;42.684;23.260;2023-02-11T03:58:19;15.87;;;9.80;;
12792;SDS011;6460;42.684;23.260;2023-02-11T04:00:47;14.50;;;9.13;;
12792;SDS011;6460;42.684;23.260;2023-02-11T04:03:14;17.70;;;10.07;;
12792;SDS011;6460;42.684;23.260;2023-02-11T04:05:41;17.20;;;9.53;;
12792;SDS011;6460;42.684;23.260;2023-02-11T04:08:10;19.10;;;10.90;;
12792;SDS011;6460;42.684;23.260;2023-02-11T04:10:37;17.20;;;9.53;;
12792;SDS011;6460;42.684;23.260;2023-02-11T04:13:04;16.27;;;10.47;;
12792;SDS011;6460;42.684;23.260;2023-02-11T04:15:31;16.13;;;9.83;;
12792;SDS011;6460;42.684;23.260;2023-02-11T04:17:59;15.63;;;9.50;;
12792;SDS011;6460;42.684;23.260;2023-02-11T04:20:26;19.83;;;11.07;;
12792;SDS011;6460;42.684;23.260;2023-02-11T04:22:53;21.37;;;13.07;;
12792;SDS011;6460;42.684;23.260;2023-02-11T04:25:21;16.87;;;10.53;;
12792;SDS011;6460;42.684;23.260;2023-02-11T04:27:50;17.10;;;10.70;;
12792;SDS011;6460;42.684;23.260;2023-02-11T04:30:17;19.17;;;10.97;;
12792;SDS011;6460;42.684;23.260;2023-02-11T04:32:44;17.13;;;9.73;;
12792;SDS011;6460;42.684;23.260;2023-02-11T04:35:12;17.23;;;10.67;;
12792;SDS011;6460;42.684;23.260;2023-02-11T04:37:39;18.27;;;10.93;;
12792;SDS011;6460;42.684;23.260;2023-02-11T04:40:07;16.17;;;9.70;;
12792;SDS011;6460;42.684;23.260;2023-02-11T04:42:36;18.57;;;10.17;;
12792;SDS011;6460;42.684;23.260;2023-02-11T04:45:03;20.20;;;11.07;;
12792;SDS011;6460;42.684;23.260;2023-02-11T04:47:32;22.43;;;11.17;;
12792;SDS011;6460;42.684;23.260;2023-02-11T04:49:59;19.47;;;11.10;;
12792;SDS011;6460;42.684;23.260;2023-02-11T04:52:26;23.00;;;11.57;;
12792;SDS011;6460;42.684;23.260;2023-02-11T04:54:53;17.50;;;10.47;;
12792;SDS011;6460;42.684;23.260;2023-02-11T04:57:20;15.93;;;9.63;;
12792;SDS011;6460;42.684;23.260;2023-02-11T04:59:49;16.90;;;10.10;;
12792;SDS011;6460;42.684;23.260;2023-02-11T05:02:16;16.27;;;10.43;;
12792;SDS011;6460;42.684;23.260;2023-02-11T05:04:43;20.00;;;10.43;;
12792;SDS011;6460;42.684;23.260;2023-02-11T05:07:10;15.87;;;10.23;;
12792;SDS011;6460;42.684;23.260;2023-02-11T05:09:37;18.13;;;10.13;;
12792;SDS011;6460;42.684;23.260;2023-02-11T05:12:05;21.80;;;11.83;;
12792;SDS011;6460;42.684;23.260;2023-02-11T05:14:32;36.47;;;18.83;;
12792;SDS011;6460;42.684;23.260;2023-02-11T05:17:01;16.00;;;10.00;;
12792;SDS011;6460;42.684;23.260;2023-02-11T05:19:28;18.23;;;11.03;;
12792;SDS011;6460;42.684;23.260;2023-02-11T05:21:56;19.17;;;11.27;;
12792;SDS011;6460;42.684;23.260;2023-02-11T05:24:23;19.57;;;11.70;;
12792;SDS011;6460;42.684;23.260;2023-02-11T05:26:51;20.57;;;11.60;;
12792;SDS011;6460;42.684;23.260;2023-02-11T05:29:18;21.47;;;11.70;;
12792;SDS011;6460;42.684;23.260;2023-02-11T05:31:45;21.73;;;12.63;;
12792;SDS011;6460;42.684;23.260;2023-02-11T05:34:13;22.67;;;11.67;;
12792;SDS011;6460;42.684;23.260;2023-02-11T05:36:41;19.60;;;10.87;;
12792;SDS011;6460;42.684;23.260;2023-02-11T05:39:08;19.80;;;11.33;;
12792;SDS011;6460;42.684;23.260;2023-02-11T05:41:35;22.50;;;12.83;;
12792;SDS011;6460;42.684;23.260;2023-02-11T05:44:03;22.30;;;11.57;;
12792;SDS011;6460;42.684;23.260;2023-02-11T05:46:30;22.23;;;11.13;;
12792;SDS011;6460;42.684;23.260;2023-02-11T05:48:57;18.90;;;10.83;;
12792;SDS011;6460;42.684;23.260;2023-02-11T05:51:26;18.87;;;11.50;;
12792;SDS011;6460;42.684;23.260;2023-02-11T05:53:53;21.13;;;12.70;;
12792;SDS011;6460;42.684;23.260;2023-02-11T05:56:20;20.77;;;11.90;;
12792;SDS011;6460;42.684;23.260;2023-02-11T05:58:47;18.83;;;11.83;;
12792;SDS011;6460;42.684;23.260;2023-02-11T06:01:15;24.57;;;12.83;;
12792;SDS011;6460;42.684;23.260;2023-02-11T06:03:42;22.67;;;11.97;;
12792;SDS011;6460;42.684;23.260;2023-02-11T06:06:09;18.37;;;10.73;;
12792;SDS011;6460;42.684;23.260;2023-02-11T06:08:38;22.70;;;13.10;;
12792;SDS011;6460;42.684;23.260;2023-02-11T06:11:05;21.70;;;12.27;;
12792;SDS011;6460;42.684;23.260;2023-02-11T06:13:33;22.07;;;12.70;;
12792;SDS011;6460;42.684;23.260;2023-02-11T06:16:00;23.90;;;12.90;;
12792;SDS011;6460;42.684;23.260;2023-02-11T06:18:28;20.77;;;13.00;;
12792;SDS011;6460;42.684;23.260;2023-02-11T06:20:57;20.47;;;12.23;;
12792;SDS011;6460;42.684;23.260;2023-02-11T06:23:25;22.90;;;12.87;;
12792;SDS011;6460;42.684;23.260;2023-02-11T06:25:53;23.30;;;13.70;;
12792;SDS011;6460;42.684;23.260;2023-02-11T06:28:20;23.53;;;12.73;;
12792;SDS011;6460;42.684;23.260;2023-02-11T06:30:48;23.60;;;12.97;;
12792;SDS011;6460;42.684;23.260;2023-02-11T06:33:15;21.40;;;13.37;;
12792;SDS011;6460;42.684;23.260;2023-02-11T06:35:42;21.97;;;13.07;;
12792;SDS011;6460;42.684;23.260;2023-02-11T06:38:09;23.83;;;12.53;;
12792;SDS011;6460;42.684;23.260;2023-02-11T06:40:36;23.03;;;12.83;;
12792;SDS011;6460;42.684;23.260;2023-02-11T06:43:04;34.77;;;14.50;;
12792;SDS011;6460;42.684;23.260;2023-02-11T06:45:32;22.83;;;13.63;;
12792;SDS011;6460;42.684;23.260;2023-02-11T06:47:59;25.03;;;13.53;;
12792;SDS011;6460;42.684;23.260;2023-02-11T06:50:26;26.37;;;14.77;;
12792;SDS011;6460;42.684;23.260;2023-02-11T06:52:53;27.23;;;14.30;;
12792;SDS011;6460;42.684;23.260;2023-02-11T06:55:20;22.97;;;13.77;;
12792;SDS011;6460;42.684;23.260;2023-02-11T06:57:48;27.03;;;14.27;;
12792;SDS011;6460;42.684;23.260;2023-02-11T07:00:16;27.80;;;15.10;;
12792;SDS011;6460;42.684;23.260;2023-02-11T07:02:44;35.70;;;18.90;;
12792;SDS011;6460;42.684;23.260;2023-02-11T07:05:11;44.17;;;21.20;;
12792;SDS011;6460;42.684;23.260;2023-02-11T07:07:38;26.13;;;14.63;;
12792;SDS011;6460;42.684;23.260;2023-02-11T07:10:05;26.07;;;15.67;;
12792;SDS011;6460;42.684;23.260;2023-02-11T07:12:33;31.03;;;13.53;;
12792;SDS011;6460;42.684;23.260;2023-02-11T07:15:00;29.47;;;12.93;;
12792;SDS011;6460;42.684;23.260;2023-02-11T07:17:28;21.87;;;14.57;;
12792;SDS011;6460;42.684;23.260;2023-02-11T07:19:55;30.20;;;15.47;;
12792;SDS011;6460;42.684;23.260;2023-02-11T07:22:22;25.53;;;15.03;;
12792;SDS011;6460;42.684;23.260;2023-02-11T07:24:49;26.23;;;15.87;;
12792;SDS011;6460;42.684;23.260;2023-02-11T07:27:16;26.07;;;14.53;;
12792;SDS011;6460;42.684;23.260;2023-02-11T07:29:43;22.13;;;12.77;;
12792;SDS011;6460;42.684;23.260;2023-02-11T07:32:11;22.63;;;11.87;;
12792;SDS011;6460;42.684;23.260;2023-02-11T07:34:40;21.93;;;13.47;;
12792;SDS011;6460;42.684;23.260;2023-02-11T07:37:07;27.67;;;12.53;;
12792;SDS011;6460;42.684;23.260;2023-02-11T07:39:35;34.57;;;17.70;;
12792;SDS011;6460;42.684;23.260;2023-02-11T07:42:02;24.77;;;12.63;;
12792;SDS011;6460;42.684;23.260;2023-02-11T07:44:29;23.07;;;13.33;;
12792;SDS011;6460;42.684;23.260;2023-02-11T07:46:57;23.23;;;12.63;;
12792;SDS011;6460;42.684;23.260;2023-02-11T07:49:24;23.43;;;13.70;;
12792;SDS011;6460;42.684;23.260;2023-02-11T07:51:53;23.70;;;12.60;;
12792;SDS011;6460;42.684;23.260;2023-02-11T07:54:20;21.20;;;12.47;;
12792;SDS011;6460;42.684;23.260;2023-02-11T07:56:48;19.40;;;10.90;;
12792;SDS011;6460;42.684;23.260;2023-02-11T07:59:15;22.10;;;12.70;;
12792;SDS011;6460;42.684;23.260;2023-02-11T08:01:42;23.43;;;13.23;;
12792;SDS011;6460;42.684;23.260;2023-02-11T08:04:09;23.67;;;12.80;;
12792;SDS011;6460;42.684;23.260;2023-02-11T08:06:39;20.60;;;12.13;;
12792;SDS011;6460;42.684;23.260;2023-02-11T08:09:10;23.50;;;13.77;;
12792;SDS011;6460;42.684;23.260;2023-02-11T08:11:40;25.60;;;14.47;;
12792;SDS011;6460;42.684;23.260;2023-02-11T08:14:08;22.60;;;14.80;;
12792;SDS011;6460;42.684;23.260;2023-02-11T08:16:35;22.43;;;13.23;;
12792;SDS011;6460;42.684;23.260;2023-02-11T08:19:04;26.40;;;15.20;;
12792;SDS011;6460;42.684;23.260;2023-02-11T08:21:33;26.27;;;15.40;;
12792;SDS011;6460;42.684;23.260;2023-02-11T08:24:00;23.03;;;15.10;;
12792;SDS011;6460;42.684;23.260;2023-02-11T08:26:30;22.80;;;14.73;;
12792;SDS011;6460;42.684;23.260;2023-02-11T08:29:00;24.10;;;14.23;;
12792;SDS011;6460;42.684;23.260;2023-02-11T08:31:29;24.63;;;15.30;;
12792;SDS011;6460;42.684;23.260;2023-02-11T08:33:59;26.63;;;14.70;;
12792;SDS011;6460;42.684;23.260;2023-02-11T08:36:27;21.60;;;13.97;;
12792;SDS011;6460;42.684;23.260;2023-02-11T08:38:55;24.97;;;15.23;;
12792;SDS011;6460;42.684;23.260;2023-02-11T08:41:24;20.60;;;13.73;;
12792;SDS011;6460;42.684;23.260;2023-02-11T08:43:54;24.73;;;14.07;;
12792;SDS011;6460;42.684;23.260;2023-02-11T08:46:21;23.80;;;13.93;;
12792;SDS011;6460;42.684;23.260;2023-02-11T08:48:48;27.70;;;14.70;;
12792;SDS011;6460;42.684;23.260;2023-02-11T08:51:17;24.33;;;13.60;;
12792;SDS011;6460;42.684;23.260;2023-02-11T08:53:45;18.93;;;12.50;;
12792;SDS011;6460;42.684;23.260;2023-02-11T08:56:13;21.23;;;12.13;;
12792;SDS011;6460;42.684;23.260;2023-02-11T08:58:41;22.20;;;13.63;;
12792;SDS011;6460;42.684;23.260;2023-02-11T09:01:10;23.10;;;11.83;;
12792;SDS011;6460;42.684;23.260;2023-02-11T09:03:38;21.17;;;12.43;;
12792;SDS011;6460;42.684;23.260;2023-02-11T09:06:06;18.30;;;11.50;;
12792;SDS011;6460;42.684;23.260;2023-02-11T09:08:34;21.87;;;12.50;;
12792;SDS011;6460;42.684;23.260;2023-02-11T09:11:02;25.53;;;13.77;;
12792;SDS011;6460;42.684;23.260;2023-02-11T09:13:29;21.63;;;12.83;;
12792;SDS011;6460;42.684;23.260;2023-02-11T09:15:56;21.50;;;12.93;;
12792;SDS011;6460;42.684;23.260;2023-02-11T09:18:25;22.73;;;11.97;;
12792;SDS011;6460;42.684;23.260;2023-02-11T09:20:53;22.23;;;12.10;;
12792;SDS011;6460;42.684;23.260;2023-02-11T09:23:27;16.23;;;11.13;;
12792;SDS011;6460;42.684;23.260;2023-02-11T09:25:54;17.40;;;10.70;;
12792;SDS011;6460;42.684;23.260;2023-02-11T09:28:21;21.80;;;12.43;;
12792;SDS011;6460;42.684;23.260;2023-02-11T09:30:48;21.33;;;12.10;;
12792;SDS011;6460;42.684;23.260;2023-02-11T09:33:15;21.63;;;10.67;;
12792;SDS011;6460;42.684;23.260;2023-02-11T09:35:44;21.30;;;12.03;;
12792;SDS011;6460;42.684;23.260;2023-02-11T09:38:11;18.87;;;10.70;;
12792;SDS011;6460;42.684;23.260;2023-02-11T09:40:40;15.50;;;8.33;;
12792;SDS011;6460;42.684;23.260;2023-02-11T09:43:09;18.03;;;11.47;;
12792;SDS011;6460;42.684;23.260;2023-02-11T09:45:40;19.17;;;11.30;;
12792;SDS011;6460;42.684;23.260;2023-02-11T09:48:09;19.90;;;12.13;;
12792;SDS011;6460;42.684;23.260;2023-02-11T09:50:41;19.17;;;11.37;;
12792;SDS011;6460;42.684;23.260;2023-02-11T09:53:15;17.30;;;10.83;;
12792;SDS011;6460;42.684;23.260;2023-02-11T09:55:46;16.20;;;10.67;;
12792;SDS011;6460;42.684;23.260;2023-02-11T09:58:22;19.77;;;11.37;;
12792;SDS011;6460;42.684;23.260;2023-02-11T10:00:53;20.27;;;11.60;;
12792;SDS011;6460;42.684;23.260;2023-02-11T10:03:48;16.40;;;9.73;;
12792;SDS011;6460;42.684;23.260;2023-02-11T10:06:30;20.03;;;11.47;;
12792;SDS011;6460;42.684;23.260;2023-02-11T10:09:07;16.03;;;9.97;;
12792;SDS011;6460;42.684;23.260;2023-02-11T10:11:48;12.90;;;8.57;;
12792;SDS011;6460;42.684;23.260;2023-02-11T10:14:23;17.40;;;10.53;;
12792;SDS011;6460;42.684;23.260;2023-02-11T10:17:05;20.40;;;11.07;;
12792;SDS011;6460;42.684;23.260;2023-02-11T10:19:42;15.90;;;9.90;;
12792;SDS011;6460;42.684;23.260;2023-02-11T10:22:23;20.10;;;8.57;;
12792;SDS011;6460;42.684;23.260;2023-02-11T10:24:57;13.60;;;9.00;;
12792;SDS011;6460;42.684;23.260;2023-02-11T10:27:26;15.50;;;9.10;;
12792;SDS011;6460;42.684;23.260;2023-02-11T10:40:20;13.53;;;8.63;;
12792;SDS011;6460;42.684;23.260;2023-02-11T10:42:49;12.50;;;8.80;;
12792;SDS011;6460;42.684;23.260;2023-02-11T10:45:35;16.50;;;10.00;;
12792;SDS011;6460;42.684;23.260;2023-02-11T10:48:05;16.73;;;10.97;;
12792;SDS011;6460;42.684;23.260;2023-02-11T10:51:07;17.90;;;10.50;;
12792;SDS011;6460;42.684;23.260;2023-02-11T10:53:41;15.33;;;9.63;;
12792;SDS011;6460;42.684;23.260;2023-02-11T10:56:11;13.93;;;9.57;;
12792;SDS011;6460;42.684;23.260;2023-02-11T11:01:20;15.90;;;9.87;;
12792;SDS011;6460;42.684;23.260;2023-02-11T11:03:48;13.13;;;9.30;;
12792;SDS011;6460;42.684;23.260;2023-02-11T11:06:17;14.83;;;8.97;;
12792;SDS011;6460;42.684;23.260;2023-02-11T11:11:32;12.83;;;8.03;;
12792;SDS011;6460;42.684;23.260;2023-02-11T11:14:17;12.67;;;7.57;;
12792;SDS011;6460;42.684;23.260;2023-02-11T11:16:51;12.63;;;7.67;;
12792;SDS011;6460;42.684;23.260;2023-02-11T11:19:20;15.23;;;9.10;;
12792;SDS011;6460;42.684;23.260;2023-02-11T11:21:48;14.47;;;9.13;;
12792;SDS011;6460;42.684;23.260;2023-02-11T11:24:19;17.63;;;10.37;;
12792;SDS011;6460;42.684;23.260;2023-02-11T11:26:50;13.87;;;8.07;;
12792;SDS011;6460;42.684;23.260;2023-02-11T11:29:21;14.97;;;8.80;;
12792;SDS011;6460;42.684;23.260;2023-02-11T11:31:54;12.43;;;8.40;;
12792;SDS011;6460;42.684;23.260;2023-02-11T11:34:26;15.37;;;9.63;;
12792;SDS011;6460;42.684;23.260;2023-02-11T11:36:55;18.00;;;9.97;;
12792;SDS011;6460;42.684;23.260;2023-02-11T11:39:25;22.43;;;13.20;;
12792;SDS011;6460;42.684;23.260;2023-02-11T11:41:57;21.60;;;11.90;;
12792;SDS011;6460;42.684;23.260;2023-02-11T11:44:27;15.00;;;8.50;;
12792;SDS011;6460;42.684;23.260;2023-02-11T11:47:07;12.13;;;8.70;;
12792;SDS011;6460;42.684;23.260;2023-02-11T11:49:49;13.73;;;8.27;;
12792;SDS011;6460;42.684;23.260;2023-02-11T11:52:31;10.53;;;7.30;;
12792;SDS011;6460;42.684;23.260;2023-02-11T12:13:06;13.73;;;8.00;;
12792;SDS011;6460;42.684;23.260;2023-02-11T12:15:44;12.47;;;7.30;;
12792;SDS011;6460;42.684;23.260;2023-02-11T12:18:23;11.53;;;6.63;;
12792;SDS011;6460;42.684;23.260;2023-02-11T12:28:56;11.50;;;7.13;;
12792;SDS011;6460;42.684;23.260;2023-02-11T12:31:38;11.23;;;7.47;;
12792;SDS011;6460;42.684;23.260;2023-02-11T12:37:18;12.17;;;7.53;;
12792;SDS011;6460;42.684;23.260;2023-02-11T12:39:58;11.87;;;8.20;;
12792;SDS011;6460;42.684;23.260;2023-02-11T12:45:46;22.53;;;15.27;;
12792;SDS011;6460;42.684;23.260;2023-02-11T12:48:44;12.57;;;7.97;;
12792;SDS011;6460;42.684;23.260;2023-02-11T12:51:33;11.20;;;7.23;;
12792;SDS011;6460;42.684;23.260;2023-02-11T12:54:19;13.03;;;8.43;;
12792;SDS011;6460;42.684;23.260;2023-02-11T12:56:54;12.57;;;7.80;;
12792;SDS011;6460;42.684;23.260;2023-02-11T12:59:38;14.10;;;8.53;;
12792;SDS011;6460;42.684;23.260;2023-02-11T13:02:19;10.47;;;7.33;;
12792;SDS011;6460;42.684;23.260;2023-02-11T13:04:53;12.50;;;7.37;;
12792;SDS011;6460;42.684;23.260;2023-02-11T13:07:26;10.50;;;7.23;;
12792;SDS011;6460;42.684;23.260;2023-02-11T13:09:56;11.83;;;7.63;;
12792;SDS011;6460;42.684;23.260;2023-02-11T13:12:31;11.70;;;7.57;;
12792;SDS011;6460;42.684;23.260;2023-02-11T13:15:18;12.33;;;7.77;;
12792;SDS011;6460;42.684;23.260;2023-02-11T13:17:50;10.70;;;7.90;;
12792;SDS011;6460;42.684;23.260;2023-02-11T13:20:26;11.27;;;7.73;;
12792;SDS011;6460;42.684;23.260;2023-02-11T13:23:02;14.43;;;7.37;;
12792;SDS011;6460;42.684;23.260;2023-02-11T13:25:39;11.43;;;6.83;;
12792;SDS011;6460;42.684;23.260;2023-02-11T13:31:05;11.47;;;7.83;;
12792;SDS011;6460;42.684;23.260;2023-02-11T13:33:36;11.20;;;7.07;;
12792;SDS011;6460;42.684;23.260;2023-02-11T13:36:20;11.17;;;7.33;;
12792;SDS011;6460;42.684;23.260;2023-02-11T13:39:18;9.90;;;7.03;;
12792;SDS011;6460;42.684;23.260;2023-02-11T13:41:47;10.60;;;6.60;;
12792;SDS011;6460;42.684;23.260;2023-02-11T13:44:25;14.07;;;7.70;;
12792;SDS011;6460;42.684;23.260;2023-02-11T13:46:54;10.37;;;7.37;;
12792;SDS011;6460;42.684;23.260;2023-02-11T13:49:28;11.37;;;7.47;;
12792;SDS011;6460;42.684;23.260;2023-02-11T13:51:57;12.33;;;7.23;;
12792;SDS011;6460;42.684;23.260;2023-02-11T13:54:31;11.17;;;8.03;;
12792;SDS011;6460;42.684;23.260;2023-02-11T13:57:20;14.13;;;7.47;;
12792;SDS011;6460;42.684;23.260;2023-02-11T13:59:52;13.80;;;8.73;;
12792;SDS011;6460;42.684;23.260;2023-02-11T14:02:24;12.73;;;7.23;;
12792;SDS011;6460;42.684;23.260;2023-02-11T14:05:23;11.23;;;8.03;;
12792;SDS011;6460;42.684;23.260;2023-02-11T14:08:27;12.73;;;8.40;;
12792;SDS011;6460;42.684;23.260;2023-02-11T14:14:15;11.10;;;7.57;;
12792;SDS011;6460;42.684;23.260;2023-02-11T14:19:47;15.57;;;8.93;;
12792;SDS011;6460;42.684;23.260;2023-02-11T14:22:16;13.73;;;8.90;;
12792;SDS011;6460;42.684;23.260;2023-02-11T14:24:49;13.70;;;8.87;;
12792;SDS011;6460;42.684;23.260;2023-02-11T14:27:24;13.23;;;8.67;;
12792;SDS011;6460;42.684;23.260;2023-02-11T14:30:01;13.33;;;9.27;;
12792;SDS011;6460;42.684;23.260;2023-02-11T14:32:42;13.43;;;9.37;;
12792;SDS011;6460;42.684;23.260;2023-02-11T14:35:21;12.27;;;8.27;;
12792;SDS011;6460;42.684;23.260;2023-02-11T14:37:58;12.77;;;8.23;;
12792;SDS011;6460;42.684;23.260;2023-02-11T14:40:33;15.17;;;9.60;;
12792;SDS011;6460;42.684;23.260;2023-02-11T14:43:10;11.73;;;8.20;;
12792;SDS011;6460;42.684;23.260;2023-02-11T14:45:38;12.23;;;8.73;;
12792;SDS011;6460;42.684;23.260;2023-02-11T14:48:06;25.03;;;18.67;;
12792;SDS011;6460;42.684;23.260;2023-02-11T14:50:40;14.43;;;7.93;;
12792;SDS011;6460;42.684;23.260;2023-02-11T14:53:13;12.97;;;8.13;;
12792;SDS011;6460;42.684;23.260;2023-02-11T14:55:43;11.60;;;8.23;;
12792;SDS011;6460;42.684;23.260;2023-02-11T14:58:17;13.20;;;9.03;;
12792;SDS011;6460;42.684;23.260;2023-02-11T15:00:46;16.83;;;9.67;;
12792;SDS011;6460;42.684;23.260;2023-02-11T15:03:28;13.77;;;9.30;;
12792;SDS011;6460;42.684;23.260;2023-02-11T15:06:00;13.60;;;9.00;;
12792;SDS011;6460;42.684;23.260;2023-02-11T15:08:32;13.47;;;8.80;;
12792;SDS011;6460;42.684;23.260;2023-02-11T15:11:02;14.67;;;8.30;;
12792;SDS011;6460;42.684;23.260;2023-02-11T15:13:35;12.57;;;8.80;;
12792;SDS011;6460;42.684;23.260;2023-02-11T15:16:04;16.10;;;9.80;;
12792;SDS011;6460;42.684;23.260;2023-02-11T15:18:34;13.37;;;8.90;;
12792;SDS011;6460;42.684;23.260;2023-02-11T15:21:04;15.23;;;10.20;;
12792;SDS011;6460;42.684;23.260;2023-02-11T15:23:33;13.37;;;9.97;;
12792;SDS011;6460;42.684;23.260;2023-02-11T15:26:19;17.43;;;10.47;;
12792;SDS011;6460;42.684;23.260;2023-02-11T15:28:47;17.57;;;11.90;;
12792;SDS011;6460;42.684;23.260;2023-02-11T15:31:17;17.60;;;11.13;;
12792;SDS011;6460;42.684;23.260;2023-02-11T15:33:44;17.67;;;11.40;;
12792;SDS011;6460;42.684;23.260;2023-02-11T15:36:12;20.73;;;13.20;;
12792;SDS011;6460;42.684;23.260;2023-02-11T15:38:42;25.57;;;16.57;;
12792;SDS011;6460;42.684;23.260;2023-02-11T15:43:59;16.87;;;11.20;;
12792;SDS011;6460;42.684;23.260;2023-02-11T15:46:30;16.27;;;11.63;;
12792;SDS011;6460;42.684;23.260;2023-02-11T15:49:01;17.67;;;10.27;;
12792;SDS011;6460;42.684;23.260;2023-02-11T15:51:28;16.73;;;11.40;;
12792;SDS011;6460;42.684;23.260;2023-02-11T15:54:00;16.47;;;10.10;;
12792;SDS011;6460;42.684;23.260;2023-02-11T15:56:30;15.17;;;10.27;;